Time;durP1;ratioP1;P1;durP2;ratioP2;P2;SDS_P1;SDS_P2;PMS_P1;PMS_P2;Temp;Humidity;BMP_temperature;BMP_pressure;BME280_temperature;BME280_humidity;BME280_pressure;Samples;Min_cycle;Max_cycle;Signal;HPM_P1;HPM_P2
2022/05/23 00:01:19;;;;;;;5.63;0.50;;;14.30;99.90;;;;;;5029451;28;20044;-59
2022/05/23 00:03:45;;;;;;;2.90;0.50;;;14.30;99.90;;;;;;5045132;28;20049;-59
2022/05/23 00:06:19;;;;;;;4.75;0.50;;;14.30;99.90;;;;;;5017517;28;20499;-59
2022/05/23 00:08:46;;;;;;;4.07;0.55;;;14.30;99.90;;;;;;5037990;28;20044;-60
2022/05/23 00:11:11;;;;;;;3.90;0.60;;;14.20;99.90;;;;;;5045618;28;20227;-60
2022/05/23 00:13:37;;;;;;;3.78;0.60;;;14.20;99.90;;;;;;5037740;28;20115;-59
2022/05/23 00:16:04;;;;;;;3.45;0.60;;;14.20;99.90;;;;;;5038672;28;20051;-60
2022/05/23 00:18:29;;;;;;;5.22;0.60;;;14.20;99.90;;;;;;5048035;28;20068;-58
2022/05/23 00:20:55;;;;;;;3.28;0.50;;;14.20;99.90;;;;;;5037527;28;20167;-59
2022/05/23 00:23:22;;;;;;;3.25;0.50;;;14.20;99.90;;;;;;5030709;28;20503;-60
2022/05/23 00:25:49;;;;;;;4.63;0.63;;;14.20;99.90;;;;;;5031293;28;20124;-59
2022/05/23 00:28:14;;;;;;;3.03;0.60;;;14.10;99.90;;;;;;5037430;28;20494;-59
2022/05/23 00:30:40;;;;;;;3.47;0.50;;;14.10;99.90;;;;;;5033165;28;20049;-58
2022/05/23 00:35:53;;;;;;;3.13;0.40;;;14.10;99.90;;;;;;5040646;28;20104;-59
2022/05/23 00:38:19;;;;;;;3.17;0.60;;;14.10;99.90;;;;;;5033592;28;20049;-60
2022/05/23 00:40:45;;;;;;;6.55;0.98;;;14.10;99.90;;;;;;5037914;28;20042;-59
2022/05/23 00:43:23;;;;;;;3.83;0.60;;;14.20;99.90;;;;;;5044615;28;20068;-59
2022/05/23 00:46:02;;;;;;;5.35;0.73;;;14.10;99.90;;;;;;5051700;28;20041;-59
2022/05/23 00:48:30;;;;;;;3.38;0.43;;;14.10;99.90;;;;;;5033597;28;20075;-59
2022/05/23 00:50:59;;;;;;;8.00;0.90;;;14.10;99.90;;;;;;5036974;28;20081;-58
2022/05/23 00:53:42;;;;;;;4.20;0.57;;;14.10;99.90;;;;;;5036679;28;20033;-58
2022/05/23 00:56:10;;;;;;;3.37;0.43;;;14.10;99.90;;;;;;5034476;28;20049;-59
2022/05/23 00:58:40;;;;;;;2.88;0.40;;;14.10;99.90;;;;;;5014841;28;20292;-59
2022/05/23 01:01:11;;;;;;;4.22;0.70;;;14.10;99.90;;;;;;5040322;28;20054;-57
2022/05/23 01:03:38;;;;;;;3.88;0.70;;;14.10;99.90;;;;;;5037562;28;20042;-58
2022/05/23 01:06:05;;;;;;;4.68;0.93;;;14.10;99.90;;;;;;5042981;28;20251;-59
2022/05/23 01:08:38;;;;;;;4.55;0.70;;;14.10;99.90;;;;;;5023826;28;20049;-60
2022/05/23 01:11:04;;;;;;;4.53;0.90;;;14.00;99.90;;;;;;5050364;28;20122;-60
2022/05/23 01:13:31;;;;;;;4.55;0.52;;;14.00;99.90;;;;;;5026558;28;20098;-61
2022/05/23 01:15:56;;;;;;;3.88;0.93;;;14.00;99.90;;;;;;5034369;28;20041;-60
2022/05/23 01:18:22;;;;;;;3.60;0.60;;;14.00;99.90;;;;;;5042906;28;20475;-60
2022/05/23 01:20:56;;;;;;;4.93;0.95;;;14.00;99.90;;;;;;5028091;28;20037;-60
2022/05/23 01:23:40;;;;;;;3.53;0.60;;;14.00;99.90;;;;;;5036826;28;20033;-59
2022/05/23 01:26:07;;;;;;;5.22;0.93;;;14.00;99.90;;;;;;5033797;28;20096;-59
2022/05/23 01:28:38;;;;;;;5.75;0.98;;;14.10;99.90;;;;;;5029393;28;20198;-60
2022/05/23 01:31:05;;;;;;;6.30;1.27;;;14.00;99.90;;;;;;5050572;28;20914;-59
2022/05/23 01:33:32;;;;;;;5.05;0.70;;;14.00;99.90;;;;;;5034128;28;20037;-58
2022/05/23 01:35:59;;;;;;;4.57;0.75;;;13.90;99.90;;;;;;5027289;28;20525;-58
2022/05/23 01:38:26;;;;;;;6.95;1.02;;;13.90;99.90;;;;;;5038757;28;20052;-59
2022/05/23 01:40:54;;;;;;;6.22;0.80;;;13.90;99.90;;;;;;5035234;28;20040;-58
2022/05/23 01:43:19;;;;;;;5.82;0.73;;;13.80;99.90;;;;;;5034820;28;20033;-58
2022/05/23 01:45:45;;;;;;;3.20;0.55;;;13.70;99.90;;;;;;5032700;28;20049;-58
2022/05/23 01:48:11;;;;;;;3.28;0.73;;;13.70;99.90;;;;;;5040220;28;20131;-58
2022/05/23 01:50:37;;;;;;;4.22;0.80;;;13.70;99.90;;;;;;5038628;28;20033;-58
2022/05/23 01:53:03;;;;;;;6.20;0.77;;;13.70;99.90;;;;;;5030947;28;20061;-58
2022/05/23 01:55:29;;;;;;;4.13;0.77;;;13.70;99.90;;;;;;5031755;28;20048;-58
2022/05/23 01:57:55;;;;;;;5.28;1.00;;;13.70;99.90;;;;;;5044034;28;20041;-58
2022/05/23 02:03:05;;;;;;;3.55;0.68;;;13.70;99.90;;;;;;5028425;28;20059;-60
2022/05/23 02:05:33;;;;;;;3.38;0.80;;;13.60;99.90;;;;;;5034970;28;20435;-59
2022/05/23 02:07:59;;;;;;;4.82;0.90;;;13.70;99.90;;;;;;5030670;28;20049;-59
2022/05/23 02:10:25;;;;;;;3.88;0.70;;;13.70;99.90;;;;;;5049462;28;20034;-58
2022/05/23 02:12:51;;;;;;;3.22;0.75;;;13.70;99.90;;;;;;5045063;28;20663;-58
2022/05/23 02:15:19;;;;;;;4.45;0.70;;;13.70;99.90;;;;;;5039406;28;20036;-59
2022/05/23 02:17:44;;;;;;;5.25;0.88;;;13.70;99.90;;;;;;5041418;28;20033;-59
2022/05/23 02:20:12;;;;;;;4.38;0.70;;;13.70;99.90;;;;;;5035441;28;20040;-58
2022/05/23 02:22:37;;;;;;;4.30;0.57;;;13.70;99.90;;;;;;5030087;28;20500;-59
2022/05/23 02:25:05;;;;;;;4.88;0.85;;;13.80;99.90;;;;;;5034642;28;20091;-58
2022/05/23 02:27:31;;;;;;;4.90;0.60;;;13.90;99.90;;;;;;5041706;28;20048;-58
2022/05/23 02:29:58;;;;;;;2.83;0.40;;;14.00;99.90;;;;;;5038196;28;20388;-58
2022/05/23 02:32:24;;;;;;;4.45;0.80;;;14.00;99.90;;;;;;5039301;28;20092;-59
2022/05/23 02:34:50;;;;;;;4.70;0.60;;;14.10;99.90;;;;;;5041907;28;20052;-58
2022/05/23 02:37:16;;;;;;;7.13;0.70;;;14.10;99.90;;;;;;5037776;28;20047;-58
2022/05/23 02:39:42;;;;;;;5.10;0.80;;;14.10;99.90;;;;;;5029838;28;20048;-58
2022/05/23 02:42:08;;;;;;;5.07;0.93;;;14.10;99.90;;;;;;5034220;28;20129;-58
2022/05/23 02:44:35;;;;;;;4.85;1.08;;;14.10;99.90;;;;;;5032722;28;20458;-58
2022/05/23 02:47:01;;;;;;;3.78;0.50;;;14.10;99.90;;;;;;5037162;28;20098;-58
2022/05/23 02:49:26;;;;;;;4.95;0.75;;;14.10;99.90;;;;;;5036769;28;20454;-58
2022/05/23 02:51:53;;;;;;;4.65;0.85;;;14.10;99.90;;;;;;5034880;28;20145;-58
2022/05/23 02:54:19;;;;;;;3.40;0.85;;;14.10;99.90;;;;;;5029470;28;20116;-59
2022/05/23 02:56:45;;;;;;;2.05;0.55;;;14.20;99.90;;;;;;5034033;28;20029;-58
2022/05/23 02:59:11;;;;;;;5.57;0.95;;;14.30;99.90;;;;;;5042059;28;20044;-58
2022/05/23 03:04:21;;;;;;;3.47;0.80;;;14.20;99.90;;;;;;5035007;28;20041;-58
2022/05/23 03:06:47;;;;;;;4.85;0.60;;;14.20;99.90;;;;;;5033932;28;20091;-59
2022/05/23 03:09:12;;;;;;;4.57;0.57;;;14.20;99.90;;;;;;5033138;28;20029;-59
2022/05/23 03:11:38;;;;;;;2.72;0.50;;;14.20;99.90;;;;;;5035968;28;20488;-58
2022/05/23 03:14:04;;;;;;;3.17;0.77;;;14.20;99.90;;;;;;5034591;28;20047;-59
2022/05/23 03:16:29;;;;;;;4.53;0.60;;;14.20;99.90;;;;;;5039741;28;20384;-58
2022/05/23 03:18:55;;;;;;;3.78;0.85;;;14.20;99.90;;;;;;5046839;28;20095;-58
2022/05/23 03:26:58;;;;;;;3.78;0.60;;;14.30;99.90;;;;;;5037905;28;20564;-58
2022/05/23 03:29:24;;;;;;;4.85;0.80;;;14.30;99.90;;;;;;5041711;28;20049;-58
2022/05/23 03:31:50;;;;;;;7.43;1.08;;;14.30;99.90;;;;;;5036602;28;20041;-58
2022/05/23 03:34:16;;;;;;;4.82;0.70;;;14.30;99.90;;;;;;5051993;28;20037;-58
2022/05/23 03:36:42;;;;;;;3.55;0.70;;;14.30;99.90;;;;;;5037364;28;20079;-59
2022/05/23 03:39:08;;;;;;;3.78;0.80;;;14.30;99.90;;;;;;5044898;28;20041;-60
2022/05/23 03:41:34;;;;;;;6.90;1.00;;;14.30;99.90;;;;;;5060176;28;20356;-59
2022/05/23 03:43:59;;;;;;;3.53;0.70;;;14.40;99.90;;;;;;5036313;28;20064;-59
2022/05/23 03:46:25;;;;;;;5.07;0.70;;;14.40;99.90;;;;;;5033263;28;20045;-59
2022/05/23 03:48:51;;;;;;;4.15;0.75;;;14.40;99.90;;;;;;5019291;28;20045;-60
2022/05/23 03:51:16;;;;;;;4.93;0.88;;;14.30;99.90;;;;;;5033302;28;20049;-60
2022/05/23 03:53:42;;;;;;;3.67;0.80;;;14.40;99.90;;;;;;5042032;28;20043;-60
2022/05/23 03:56:08;;;;;;;2.67;0.80;;;14.40;99.90;;;;;;5040849;28;20033;-60
2022/05/23 03:58:34;;;;;;;6.50;0.80;;;14.50;99.90;;;;;;5052732;28;20062;-59
2022/05/23 04:01:08;;;;;;;3.45;0.82;;;14.50;99.90;;;;;;5033985;28;20084;-60
2022/05/23 04:03:34;;;;;;;3.97;0.80;;;14.50;99.90;;;;;;5044839;28;20135;-60
2022/05/23 04:06:00;;;;;;;4.53;0.90;;;14.50;99.90;;;;;;5043069;28;20044;-60
2022/05/23 04:08:26;;;;;;;5.78;1.10;;;14.50;99.90;;;;;;5031209;28;20034;-59
2022/05/23 04:10:52;;;;;;;5.35;1.20;;;14.50;99.90;;;;;;5024645;28;20037;-59
2022/05/23 04:13:18;;;;;;;4.15;1.10;;;14.50;99.90;;;;;;5035099;28;20037;-59
2022/05/23 04:15:44;;;;;;;6.60;0.80;;;14.50;99.90;;;;;;5033782;28;20148;-59
2022/05/23 04:18:10;;;;;;;9.05;1.30;;;14.50;99.90;;;;;;5038354;28;20048;-59
2022/05/23 04:20:35;;;;;;;5.50;1.08;;;14.50;99.90;;;;;;5034593;28;20415;-59
2022/05/23 04:23:02;;;;;;;5.85;1.52;;;14.50;99.90;;;;;;5043027;28;20034;-59
2022/05/23 04:25:28;;;;;;;6.25;1.00;;;14.50;99.90;;;;;;5028227;28;20583;-59
2022/05/23 04:27:53;;;;;;;6.53;0.90;;;14.50;99.90;;;;;;5028898;28;20094;-59
2022/05/23 04:30:19;;;;;;;6.18;1.25;;;14.50;99.90;;;;;;5034547;28;20029;-59
2022/05/23 04:35:30;;;;;;;4.30;1.00;;;14.50;99.90;;;;;;5029766;28;20133;-60
2022/05/23 04:37:55;;;;;;;4.88;1.35;;;14.60;99.90;;;;;;5038059;28;20108;-59
2022/05/23 04:40:27;;;;;;;8.38;1.60;;;14.60;99.90;;;;;;5029030;28;20479;-59
2022/05/23 04:42:53;;;;;;;4.70;1.98;;;14.60;99.90;;;;;;5032584;28;20085;-60
2022/05/23 04:45:20;;;;;;;4.32;1.70;;;14.50;99.90;;;;;;5042641;28;20094;-60
2022/05/23 04:50:32;;;;;;;5.10;1.52;;;14.60;99.90;;;;;;5035680;28;20048;-59
2022/05/23 04:52:58;;;;;;;8.10;2.15;;;14.60;99.90;;;;;;5032761;28;20128;-60
2022/05/23 04:55:25;;;;;;;5.93;1.58;;;14.60;99.90;;;;;;5036031;28;20111;-60
2022/05/23 04:57:52;;;;;;;6.22;1.83;;;14.70;99.90;;;;;;5044808;28;20052;-59
2022/05/23 05:00:19;;;;;;;5.30;1.50;;;14.80;99.90;;;;;;5028050;28;20128;-59
2022/05/23 05:02:49;;;;;;;5.78;1.45;;;14.80;99.90;;;;;;5019547;28;20052;-60
2022/05/23 05:05:16;;;;;;;5.45;1.90;;;14.80;99.90;;;;;;5034588;28;20041;-59
2022/05/23 05:07:42;;;;;;;7.05;2.08;;;14.80;99.90;;;;;;5040096;28;20426;-60
2022/05/23 05:10:08;;;;;;;4.20;1.55;;;14.80;99.90;;;;;;5010703;28;20039;-59
2022/05/23 05:12:34;;;;;;;7.07;2.17;;;14.70;99.90;;;;;;5038128;28;20533;-60
2022/05/23 05:15:00;;;;;;;6.97;2.00;;;14.70;99.90;;;;;;5022346;28;20106;-59
2022/05/23 05:17:27;;;;;;;7.53;2.10;;;14.70;99.90;;;;;;5034413;28;20041;-59
2022/05/23 05:19:54;;;;;;;4.68;1.88;;;14.70;99.90;;;;;;5026171;28;20044;-59
2022/05/23 05:22:20;;;;;;;5.07;1.80;;;14.70;99.90;;;;;;5033874;28;20045;-60
2022/05/23 05:24:45;;;;;;;7.57;2.58;;;14.80;99.90;;;;;;5033997;28;20053;-60
2022/05/23 05:27:11;;;;;;;6.90;2.35;;;14.90;99.90;;;;;;5037451;28;20042;-59
2022/05/23 05:29:38;;;;;;;4.50;1.83;;;15.20;99.90;;;;;;5036694;28;20572;-60
2022/05/23 05:32:32;;;;;;;6.75;2.60;;;15.40;99.90;;;;;;5033036;28;20045;-59
2022/05/23 05:35:05;;;;;;;5.80;2.42;;;15.50;99.90;;;;;;5029497;28;20191;-59
2022/05/23 05:37:36;;;;;;;5.55;2.50;;;15.40;99.90;;;;;;5023984;28;20063;-60
2022/05/23 05:40:04;;;;;;;6.70;3.10;;;15.40;99.90;;;;;;5041925;28;20056;-60
2022/05/23 05:42:39;;;;;;;8.25;2.92;;;15.30;99.90;;;;;;5028352;28;20499;-59
2022/05/23 05:45:11;;;;;;;9.65;3.10;;;15.30;99.90;;;;;;5035512;28;20099;-59
2022/05/23 05:47:40;;;;;;;7.30;2.90;;;15.20;99.90;;;;;;5033705;28;20194;-59
2022/05/23 05:50:12;;;;;;;7.80;2.88;;;15.30;99.90;;;;;;5035986;28;20809;-60
2022/05/23 05:52:38;;;;;;;6.50;2.75;;;15.40;99.90;;;;;;5034358;28;20052;-59
2022/05/23 05:55:07;;;;;;;8.07;3.10;;;15.40;99.90;;;;;;5036352;28;20124;-59
2022/05/23 05:57:33;;;;;;;6.38;3.33;;;15.50;99.90;;;;;;5033821;28;20045;-59
2022/05/23 05:59:58;;;;;;;5.93;2.80;;;15.50;99.90;;;;;;5031082;28;20056;-59
2022/05/23 06:02:24;;;;;;;6.95;2.47;;;15.60;99.90;;;;;;5032293;28;20060;-59
2022/05/23 06:04:50;;;;;;;6.45;2.55;;;15.60;99.90;;;;;;5038039;28;20484;-60
2022/05/23 06:12:59;;;;;;;8.63;3.00;;;15.50;99.90;;;;;;5034914;28;20048;-59
2022/05/23 06:15:26;;;;;;;9.57;3.67;;;15.50;99.90;;;;;;5038315;28;20060;-60
2022/05/23 06:17:54;;;;;;;7.53;3.47;;;15.40;99.90;;;;;;5021841;28;20025;-60
2022/05/23 06:20:22;;;;;;;5.10;2.85;;;15.40;99.90;;;;;;5026661;28;20044;-60
2022/05/23 06:22:50;;;;;;;6.53;3.45;;;15.50;99.90;;;;;;5027379;28;20044;-60
2022/05/23 06:25:16;;;;;;;7.50;3.95;;;15.80;99.90;;;;;;5033792;28;20160;-60
2022/05/23 06:27:43;;;;;;;6.78;3.58;;;16.00;99.90;;;;;;5031030;28;20045;-60
2022/05/23 06:30:11;;;;;;;7.30;3.67;;;16.20;99.90;;;;;;5015061;28;20471;-60
2022/05/23 06:32:38;;;;;;;8.68;4.80;;;16.50;99.90;;;;;;5026028;28;20116;-60
2022/05/23 06:35:07;;;;;;;8.50;3.72;;;16.60;99.90;;;;;;5049933;28;20080;-60
2022/05/23 06:37:37;;;;;;;12.18;4.57;;;16.70;99.90;;;;;;5043583;28;20116;-60
2022/05/23 06:40:06;;;;;;;8.57;3.90;;;16.80;99.90;;;;;;5037273;28;20353;-61
2022/05/23 06:42:32;;;;;;;9.20;3.38;;;16.80;99.90;;;;;;5013830;28;20045;-61
2022/05/23 06:44:59;;;;;;;7.10;3.90;;;16.80;99.90;;;;;;5028360;28;20060;-60
2022/05/23 06:47:25;;;;;;;6.80;3.55;;;16.90;99.90;;;;;;5032636;28;20418;-59
2022/05/23 06:49:51;;;;;;;8.50;3.58;;;17.00;99.90;;;;;;5030956;28;20044;-59
2022/05/23 06:52:18;;;;;;;7.07;3.55;;;17.10;99.90;;;;;;5036497;28;20049;-60
2022/05/23 06:54:44;;;;;;;7.47;3.47;;;17.20;99.90;;;;;;5032927;28;20480;-60
2022/05/23 06:57:09;;;;;;;7.32;3.33;;;17.30;99.90;;;;;;5020303;28;20036;-60
2022/05/23 06:59:35;;;;;;;9.60;3.50;;;17.40;99.90;;;;;;5057751;28;20411;-59
2022/05/23 07:02:02;;;;;;;8.45;3.50;;;17.50;99.90;;;;;;5045829;28;20041;-60
2022/05/23 07:12:19;;;;;;;13.85;3.25;;;17.80;99.90;;;;;;5049755;28;20055;-59
2022/05/23 07:12:42;;;;;;;7.93;3.03;;;18.30;99.90;;;;;;5039573;28;20037;-60
2022/05/23 07:15:09;;;;;;;5.75;2.92;;;18.40;99.90;;;;;;5053124;28;20048;-61
2022/05/23 07:17:35;;;;;;;7.18;3.22;;;18.30;99.90;;;;;;5043930;28;20069;-59
2022/05/23 07:20:01;;;;;;;5.60;3.88;;;18.30;99.90;;;;;;5021658;28;20079;-60
2022/05/23 07:22:27;;;;;;;7.13;4.00;;;18.10;99.90;;;;;;5041381;28;20049;-59
2022/05/23 07:24:53;;;;;;;5.85;3.75;;;18.30;99.90;;;;;;5016091;28;20110;-61
2022/05/23 07:27:27;;;;;;;8.88;3.65;;;18.40;99.90;;;;;;5045632;28;20045;-60
2022/05/23 07:29:53;;;;;;;7.57;3.45;;;18.50;99.90;;;;;;5053942;28;20029;-59
2022/05/23 07:32:18;;;;;;;7.57;3.38;;;18.70;99.90;;;;;;5034507;28;20049;-59
2022/05/23 07:34:44;;;;;;;6.38;3.10;;;18.90;99.90;;;;;;5051537;28;20048;-58
2022/05/23 07:37:10;;;;;;;8.55;3.03;;;19.00;99.90;;;;;;5037550;28;20463;-59
2022/05/23 07:39:39;;;;;;;7.60;3.33;;;19.20;99.90;;;;;;5035917;28;20053;-59
2022/05/23 07:42:07;;;;;;;7.88;3.45;;;19.50;99.90;;;;;;5031872;28;20151;-60
2022/05/23 07:44:33;;;;;;;6.18;3.20;;;19.60;99.90;;;;;;5034914;28;20042;-59
2022/05/23 07:46:59;;;;;;;6.05;3.10;;;19.70;99.90;;;;;;5046409;28;20087;-60
2022/05/23 07:49:26;;;;;;;8.23;4.35;;;19.80;99.90;;;;;;5042339;28;20037;-59
2022/05/23 07:51:53;;;;;;;6.78;4.10;;;19.80;99.90;;;;;;5048120;28;20045;-58
2022/05/23 08:02:33;;;;;;;8.32;3.63;;;19.90;99.90;;;;;;5045017;28;20049;-59
2022/05/23 08:04:59;;;;;;;7.70;3.72;;;20.10;99.90;;;;;;5032916;28;20064;-58
2022/05/23 08:07:28;;;;;;;6.10;3.17;;;20.20;99.90;;;;;;5050816;28;20053;-58
2022/05/23 08:09:55;;;;;;;6.22;3.05;;;20.40;99.90;;;;;;5051197;28;20069;-58
2022/05/23 08:12:21;;;;;;;6.60;3.33;;;20.50;99.90;;;;;;5032967;28;20049;-58
2022/05/23 08:14:47;;;;;;;4.35;2.60;;;20.30;99.90;;;;;;5051043;28;20395;-58
2022/05/23 08:17:13;;;;;;;8.20;3.03;;;20.70;99.90;;;;;;5050779;28;20483;-60
2022/05/23 08:19:39;;;;;;;6.05;3.10;;;20.70;99.90;;;;;;5050520;28;20137;-60
2022/05/23 08:22:06;;;;;;;8.20;3.78;;;20.60;99.90;;;;;;5016485;28;20037;-59
2022/05/23 08:24:33;;;;;;;6.32;3.05;;;20.30;99.90;;;;;;5049901;28;20080;-60
2022/05/23 08:27:00;;;;;;;6.18;3.30;;;20.30;99.90;;;;;;5050744;28;20041;-59
2022/05/23 08:29:26;;;;;;;6.70;3.20;;;20.30;99.90;;;;;;5050463;28;20487;-60
2022/05/23 08:31:51;;;;;;;6.97;3.50;;;20.30;99.90;;;;;;5049559;28;20045;-59
2022/05/23 08:34:17;;;;;;;6.68;3.15;;;20.40;99.90;;;;;;5049120;28;20501;-60
2022/05/23 08:36:43;;;;;;;5.88;3.50;;;20.40;99.90;;;;;;5050768;28;20047;-60
2022/05/23 08:39:10;;;;;;;7.18;3.85;;;20.60;99.90;;;;;;5049285;28;20434;-60
2022/05/23 08:41:42;;;;;;;4.80;3.42;;;20.80;99.90;;;;;;5032228;28;20546;-59
2022/05/23 08:44:16;;;;;;;6.23;3.70;;;21.10;99.90;;;;;;5049353;28;20092;-59
2022/05/23 08:46:57;;;;;;;6.20;3.33;;;21.10;99.90;;;;;;5049060;28;20041;-60
2022/05/23 08:49:26;;;;;;;6.63;3.70;;;21.20;99.90;;;;;;5032197;28;20060;-60
2022/05/23 08:52:19;;;;;;;8.45;3.67;;;21.00;99.90;;;;;;5048953;28;20288;-60
2022/05/23 08:54:48;;;;;;;;;;;20.80;99.90;;;;;;5032733;28;20033;-60
2022/05/23 08:57:47;;;;;;;4.57;3.22;;;20.60;99.90;;;;;;5048800;28;19965;-60
2022/05/23 09:00:16;;;;;;;8.65;3.95;;;20.60;99.90;;;;;;5025541;28;20064;-60
2022/05/23 09:02:51;;;;;;;6.78;3.53;;;20.90;99.90;;;;;;5048613;28;20419;-60
2022/05/23 09:05:25;;;;;;;5.60;3.58;;;21.20;99.90;;;;;;5049859;28;20059;-59
2022/05/23 09:07:58;;;;;;;5.50;3.20;;;21.50;99.90;;;;;;5048347;28;20044;-62
2022/05/23 09:10:46;;;;;;;5.45;3.40;;;21.70;99.90;;;;;;5048645;28;20049;-59
2022/05/23 09:13:15;;;;;;;5.63;3.47;;;21.80;99.90;;;;;;5031497;28;20139;-59
2022/05/23 09:15:42;;;;;;;6.40;3.55;;;21.90;99.90;;;;;;5048539;28;20413;-60
2022/05/23 09:18:16;;;;;;;6.55;3.13;;;21.90;99.90;;;;;;5049549;28;20432;-60
2022/05/23 09:20:46;;;;;;;10.18;3.50;;;22.00;99.90;;;;;;5049838;28;20120;-60
2022/05/23 09:23:28;;;;;;;8.27;3.80;;;21.90;99.90;;;;;;5031838;28;20036;-60
2022/05/23 09:25:55;;;;;;;7.10;3.70;;;22.50;99.90;;;;;;5048551;28;20060;-60
2022/05/23 09:28:27;;;;;;;8.82;3.67;;;22.60;99.90;;;;;;5048015;28;20045;-59
2022/05/23 09:31:00;;;;;;;6.00;3.78;;;22.60;99.90;;;;;;5031596;28;20044;-59
2022/05/23 09:33:30;;;;;;;9.77;3.25;;;22.80;99.90;;;;;;5047860;28;20084;-60
2022/05/23 09:36:09;;;;;;;9.10;3.30;;;23.00;99.90;;;;;;5047982;28;20076;-60
2022/05/23 09:38:51;;;;;;;6.78;3.08;;;23.00;99.90;;;;;;5048225;28;20070;-60
2022/05/23 09:41:29;;;;;;;6.30;3.60;;;22.90;99.90;;;;;;5049137;28;20041;-61
2022/05/23 09:49:26;;;;;;;7.18;3.70;;;23.40;99.90;;;;;;5033311;28;20130;-60
2022/05/23 09:52:03;;;;;;;5.53;3.78;;;23.50;99.90;;;;;;5049184;28;20285;-59
2022/05/23 09:54:38;;;;;;;7.43;3.60;;;23.80;99.90;;;;;;5047941;28;20041;-59
2022/05/23 09:57:22;;;;;;;4.13;3.55;;;24.00;99.90;;;;;;5048994;28;20041;-59
2022/05/23 10:00:00;;;;;;;5.78;3.65;;;24.40;99.90;;;;;;5048002;28;20052;-60
2022/05/23 10:02:38;;;;;;;8.02;2.78;;;24.60;99.90;;;;;;5031000;28;20056;-60
2022/05/23 10:05:07;;;;;;;8.20;3.25;;;24.60;99.90;;;;;;5047792;28;20518;-60
2022/05/23 10:07:37;;;;;;;5.32;2.95;;;24.70;99.90;;;;;;5047294;28;20083;-60
2022/05/23 10:10:22;;;;;;;5.18;3.10;;;24.70;99.90;;;;;;5047525;28;20073;-60
2022/05/23 10:12:48;;;;;;;10.02;3.70;;;25.00;99.90;;;;;;5021765;28;20041;-61
2022/05/23 10:15:32;;;;;;;8.35;3.17;;;25.00;99.90;;;;;;5030011;28;20041;-60
2022/05/23 10:18:05;;;;;;;4.97;2.33;;;25.40;99.90;;;;;;5044732;28;20521;-60
2022/05/23 10:20:42;;;;;;;4.65;2.80;;;25.60;99.90;;;;;;5036117;28;20033;-60
2022/05/23 10:23:17;;;;;;;4.38;2.90;;;25.20;99.90;;;;;;5033769;28;20388;-59
2022/05/23 10:26:01;;;;;;;3.58;1.52;;;25.30;99.90;;;;;;5043295;28;20084;-59
2022/05/23 10:28:54;;;;;;;6.75;2.85;;;25.50;99.00;;;;;;5039049;28;20053;-60
2022/05/23 10:31:35;;;;;;;5.90;2.45;;;25.30;99.90;;;;;;5038986;28;20034;-60
2022/05/23 10:34:25;;;;;;;6.28;2.42;;;25.70;99.90;;;;;;5036468;28;20435;-59
2022/05/23 10:36:53;;;;;;;5.80;2.17;;;25.50;99.90;;;;;;5040124;28;20064;-59
2022/05/23 10:42:34;;;;;;;6.35;2.95;;;25.80;99.90;;;;;;5037516;28;20041;-59
2022/05/23 10:45:38;;;;;;;5.93;3.00;;;25.80;99.90;;;;;;5049617;28;20400;-60
2022/05/23 10:48:27;;;;;;;5.30;2.47;;;26.20;99.90;;;;;;5015756;28;20041;-58
2022/05/23 10:51:00;;;;;;;5.65;2.30;;;26.30;99.90;;;;;;5022769;28;20041;-59
2022/05/23 10:53:29;;;;;;;6.07;2.50;;;26.00;99.90;;;;;;5033141;28;20041;-61
2022/05/23 10:56:25;;;;;;;6.32;2.10;;;26.30;99.90;;;;;;5033104;28;20045;-61
2022/05/23 10:59:06;;;;;;;6.45;3.15;;;26.60;94.80;;;;;;5047614;28;20041;-61
2022/05/23 11:01:41;;;;;;;5.53;2.78;;;26.10;97.10;;;;;;5035552;28;20127;-61
2022/05/23 11:04:28;;;;;;;5.55;2.13;;;26.10;97.40;;;;;;5045107;28;20048;-61
2022/05/23 11:07:27;;;;;;;8.70;1.75;;;26.10;96.20;;;;;;5044861;28;20033;-61
2022/05/23 11:10:00;;;;;;;4.55;1.70;;;25.70;94.10;;;;;;5038695;28;20037;-60
2022/05/23 11:12:44;;;;;;;6.47;2.10;;;25.00;97.20;;;;;;5060808;28;20045;-60
2022/05/23 11:15:22;;;;;;;7.32;2.38;;;24.90;97.70;;;;;;5062413;28;20447;-60
2022/05/23 11:18:29;;;;;;;6.10;2.05;;;25.10;97.90;;;;;;5055031;28;20051;-61
2022/05/23 11:21:00;;;;;;;5.10;1.80;;;24.90;99.50;;;;;;5030488;28;20050;-61
2022/05/23 11:23:49;;;;;;;5.20;1.25;;;25.20;97.60;;;;;;5037872;28;20110;-61
2022/05/23 11:26:29;;;;;;;4.13;1.30;;;25.20;95.00;;;;;;5051123;28;20045;-60
2022/05/23 11:34:40;;;;;;;3.53;0.90;;;25.90;91.10;;;;;;5050277;28;20045;-61
2022/05/23 11:39:56;;;;;;;4.15;0.90;;;26.90;79.00;;;;;;5037774;28;20502;-60
2022/05/23 11:42:26;;;;;;;4.00;1.10;;;27.20;75.40;;;;;;5039744;28;20044;-61
2022/05/23 11:45:56;;;;;;;2.53;0.82;;;27.20;71.50;;;;;;5037204;28;20072;-60
2022/05/23 11:47:48;;;;;;;3.00;0.90;;;27.00;72.10;;;;;;5046772;28;20064;-61
2022/05/23 11:50:33;;;;;;;5.80;0.88;;;26.70;77.90;;;;;;5027372;28;20120;-60
2022/05/23 11:53:08;;;;;;;3.22;0.70;;;26.80;80.40;;;;;;5044770;28;20045;-60
2022/05/23 11:55:57;;;;;;;4.38;1.02;;;26.70;84.80;;;;;;5014488;28;20276;-59
2022/05/23 11:58:53;;;;;;;4.50;0.93;;;27.10;80.50;;;;;;5011778;28;20583;-59
2022/05/23 12:01:24;;;;;;;3.00;0.65;;;27.30;67.70;;;;;;5031557;28;20478;-60
2022/05/23 12:03:57;;;;;;;3.33;1.00;;;27.20;72.30;;;;;;5055480;28;20112;-60
2022/05/23 12:06:28;;;;;;;3.63;0.70;;;26.80;75.50;;;;;;5035047;28;20060;-59
2022/05/23 12:08:57;;;;;;;1.67;0.60;;;26.70;81.90;;;;;;5045583;28;20037;-59
2022/05/23 12:11:25;;;;;;;2.50;0.60;;;26.80;69.80;;;;;;5051699;28;20125;-59
2022/05/23 12:13:52;;;;;;;5.65;1.15;;;26.50;72.60;;;;;;5048024;28;20526;-60
2022/05/23 12:16:36;;;;;;;3.17;0.82;;;26.40;82.50;;;;;;5046838;28;20064;-59
2022/05/23 12:19:30;;;;;;;2.40;0.70;;;26.60;85.40;;;;;;5040629;28;20514;-59
2022/05/23 12:22:39;;;;;;;2.78;0.70;;;26.90;76.10;;;;;;5034053;28;20554;-60
2022/05/23 12:25:07;;;;;;;3.53;1.10;;;26.80;72.40;;;;;;5014954;28;20128;-59
2022/05/23 12:27:40;;;;;;;3.13;0.60;;;26.30;82.70;;;;;;5028840;28;20115;-60
2022/05/23 12:30:22;;;;;;;2.75;0.65;;;26.70;75.90;;;;;;5031489;28;20045;-60
2022/05/23 12:32:51;;;;;;;2.83;0.80;;;26.60;73.60;;;;;;5061666;28;20360;-58
2022/05/23 12:35:20;;;;;;;4.93;1.42;;;26.00;83.00;;;;;;5047213;28;20573;-59
2022/05/23 12:38:11;;;;;;;2.75;1.23;;;26.10;90.20;;;;;;5037618;28;20040;-60
2022/05/23 12:40:46;;;;;;;2.90;0.77;;;26.40;90.10;;;;;;5049346;28;20099;-60
2022/05/23 12:43:41;;;;;;;2.40;0.80;;;26.70;88.80;;;;;;5047311;28;20044;-60
2022/05/23 12:46:16;;;;;;;3.08;1.02;;;26.80;88.60;;;;;;5057407;28;20053;-60
2022/05/23 12:49:10;;;;;;;4.22;0.88;;;27.10;90.00;;;;;;5031386;28;20099;-60
2022/05/23 12:51:44;;;;;;;6.00;1.00;;;27.20;83.40;;;;;;5027975;28;20518;-62
2022/05/23 12:54:16;;;;;;;3.90;0.70;;;27.20;90.00;;;;;;5039266;28;20435;-61
2022/05/23 12:56:41;;;;;;;3.80;0.70;;;27.30;80.20;;;;;;5039942;28;20045;-60
2022/05/23 12:59:49;;;;;;;4.90;0.68;;;27.40;68.80;;;;;;5049991;28;20298;-59
2022/05/23 13:02:22;;;;;;;4.93;0.65;;;27.90;65.60;;;;;;5031386;28;20212;-59
2022/05/23 13:05:14;;;;;;;2.72;0.50;;;27.80;61.20;;;;;;5055209;28;20053;-60
2022/05/23 13:07:48;;;;;;;2.85;0.60;;;27.40;63.00;;;;;;5046611;28;20025;-60
2022/05/23 13:10:37;;;;;;;5.03;0.57;;;27.40;63.80;;;;;;5045220;28;20033;-59
2022/05/23 13:13:06;;;;;;;2.75;0.50;;;27.30;69.40;;;;;;5038065;28;20102;-60
2022/05/23 13:15:34;;;;;;;4.63;0.80;;;27.00;65.90;;;;;;5044766;28;20040;-60
2022/05/23 13:23:34;;;;;;;3.83;0.60;;;27.20;64.70;;;;;;5020683;28;20084;-62
2022/05/23 13:26:10;;;;;;;4.05;0.60;;;27.10;63.00;;;;;;5056453;28;20475;-61
2022/05/23 13:28:47;;;;;;;7.88;0.75;;;26.40;65.90;;;;;;5040403;28;20086;-63
2022/05/23 13:31:34;;;;;;;5.57;0.80;;;26.20;66.60;;;;;;5036398;28;20562;-61
2022/05/23 13:34:00;;;;;;;4.22;1.05;;;25.80;69.20;;;;;;5036795;28;20503;-62
2022/05/23 13:36:38;;;;;;;3.03;0.98;;;25.70;70.80;;;;;;5030072;28;20051;-61
2022/05/23 13:39:09;;;;;;;4.13;0.90;;;25.40;71.80;;;;;;5031847;28;20041;-61
2022/05/23 13:41:35;;;;;;;2.80;0.80;;;25.10;74.60;;;;;;5037540;28;20037;-61
2022/05/23 13:44:00;;;;;;;5.55;0.75;;;25.20;72.80;;;;;;5029822;28;20051;-61
2022/05/23 13:46:40;;;;;;;6.10;0.90;;;25.20;75.30;;;;;;5029076;28;20049;-61
2022/05/23 13:49:09;;;;;;;3.05;0.70;;;25.40;75.30;;;;;;5039398;28;20452;-61
2022/05/23 13:51:56;;;;;;;5.55;0.70;;;25.80;74.60;;;;;;5032646;28;20741;-61
2022/05/23 13:54:32;;;;;;;3.03;0.73;;;25.90;76.30;;;;;;5036085;28;20040;-61
2022/05/23 13:57:10;;;;;;;5.55;0.70;;;25.90;74.80;;;;;;5033685;28;20388;-61
2022/05/23 13:59:48;;;;;;;2.70;0.70;;;25.90;74.80;;;;;;5031983;28;20045;-59
2022/05/23 14:02:24;;;;;;;3.90;0.88;;;25.90;75.90;;;;;;5034503;28;20465;-60
2022/05/23 14:04:53;;;;;;;3.17;0.80;;;25.50;73.20;;;;;;5043563;28;20076;-61
2022/05/23 14:07:24;;;;;;;6.88;0.90;;;25.30;74.70;;;;;;5045323;28;20318;-60
2022/05/23 14:09:52;;;;;;;3.15;0.93;;;25.20;75.10;;;;;;5034439;28;20045;-59